ETH351 HAAB-HKJK
Flight info
| Callsign | ETH351 |
|---|---|
| Flight time | N/A |
| Altitude | 38000 |
| Route | SHALA2A SHALA UM308 RUDOL/N0476F390 UM308 LOTAS LOTAS4D |
| Aircraft | B77W/H-SDE1E2E3FGHIJ2J3J4J5M1RWXY/LB1D1 |
Departure
| Time | N/A |
|---|---|
| Airport | Addis Ababa Bole International Airport (HAAB) |
Arrival
| Time | 2026-04-30 18:14 |
|---|---|
| Airport | Jomo Kenyatta International Airport (HKJK) |
| Time | Latitude | Longitude | Altitude | Speed | Heading |
|---|---|---|---|---|---|
| 2026-04-30 17:39 | 1.80493 | 36.77173 | 37994 ft | 478 kts | 197° |
| 2026-04-30 17:42 | 1.48501 | 36.67757 | 38001 ft | 480 kts | 197° |
| 2026-04-30 17:43 | 1.34623 | 36.63675 | 38025 ft | 480 kts | 197° |
| 2026-04-30 17:44 | 1.13494 | 36.57459 | 38036 ft | 482 kts | 197° |
| 2026-04-30 17:46 | 0.97247 | 36.53457 | 38037 ft | 482 kts | 173° |
| 2026-04-30 17:47 | 0.84042 | 36.55573 | 38074 ft | 486 kts | 172° |
| 2026-04-30 17:48 | 0.60436 | 36.58813 | 38046 ft | 485 kts | 172° |
| 2026-04-30 17:49 | 0.48127 | 36.60512 | 37612 ft | 463 kts | 172° |
| 2026-04-30 17:50 | 0.35175 | 36.62299 | 37617 ft | 474 kts | 172° |
| 2026-04-30 17:52 | 0.15758 | 36.64976 | 37631 ft | 468 kts | 172° |
| 2026-04-30 17:54 | -0.12861 | 36.65780 | 35941 ft | 461 kts | 221° |
| 2026-04-30 17:55 | -0.24020 | 36.62797 | 34093 ft | 437 kts | 159° |
| 2026-04-30 17:56 | -0.36232 | 36.64189 | 31393 ft | 456 kts | 179° |
| 2026-04-30 17:57 | -0.45669 | 36.64376 | 28786 ft | 432 kts | 178° |
| 2026-04-30 17:58 | -0.54209 | 36.64753 | 26231 ft | 394 kts | 177° |
| 2026-04-30 17:59 | -0.64700 | 36.65256 | 23030 ft | 363 kts | 178° |
| 2026-04-30 18:00 | -0.74525 | 36.65719 | 19713 ft | 344 kts | 178° |
| 2026-04-30 18:00 | -0.81603 | 36.66052 | 17233 ft | 334 kts | 177° |
| 2026-04-30 18:01 | -0.86203 | 36.66268 | 15557 ft | 328 kts | 177° |
| 2026-04-30 18:02 | -0.92936 | 36.66585 | 13104 ft | 320 kts | 177° |
| 2026-04-30 18:02 | -0.99442 | 36.66890 | 10617 ft | 304 kts | 175° |
| 2026-04-30 18:03 | -1.05455 | 36.67171 | 9600 ft | 273 kts | 176° |
| 2026-04-30 18:04 | -1.11277 | 36.67446 | 9619 ft | 276 kts | 175° |
| 2026-04-30 18:05 | -1.18935 | 36.67808 | 9639 ft | 276 kts | 175° |
| 2026-04-30 18:06 | -1.26629 | 36.68172 | 9659 ft | 281 kts | 176° |
| 2026-04-30 18:07 | -1.34017 | 36.68516 | 9635 ft | 239 kts | 176° |
| 2026-04-30 18:08 | -1.39215 | 36.68788 | 9218 ft | 255 kts | 171° |
| 2026-04-30 18:09 | -1.42726 | 36.74058 | 7664 ft | 222 kts | 107° |
| 2026-04-30 18:10 | -1.41935 | 36.78947 | 7678 ft | 195 kts | 56° |
| 2026-04-30 18:11 | -1.38882 | 36.83229 | 7290 ft | 186 kts | 56° |
| 2026-04-30 18:11 | -1.36730 | 36.86183 | 7126 ft | 157 kts | 57° |
| 2026-04-30 18:12 | -1.34812 | 36.88739 | 6043 ft | 152 kts | 59° |
| 2026-04-30 18:13 | -1.33605 | 36.90426 | 5620 ft | 146 kts | 56° |
| 2026-04-30 18:13 | -1.32107 | 36.92531 | 5318 ft | 110 kts | 53° |
| 2026-04-30 18:14 | -1.31566 | 36.93297 | 5309 ft | 4 kts | 101° |
| 2026-04-30 18:15 | -1.31626 | 36.93374 | 5305 ft | 6 kts | 141° |
| 2026-04-30 18:15 | -1.31806 | 36.93473 | 5311 ft | 14 kts | 195° |
| 2026-04-30 18:16 | -1.31954 | 36.93292 | 5311 ft | 19 kts | 234° |
| 2026-04-30 18:16 | -1.32111 | 36.93080 | 5315 ft | 19 kts | 233° |
| 2026-04-30 18:17 | -1.32191 | 36.92974 | 5316 ft | 19 kts | 232° |
| 2026-04-30 18:17 | -1.32272 | 36.92868 | 5318 ft | 19 kts | 233° |
| 2026-04-30 18:17 | -1.32427 | 36.92653 | 5334 ft | 19 kts | 234° |
| 2026-04-30 18:18 | -1.32505 | 36.92545 | 5334 ft | 19 kts | 234° |
| 2026-04-30 18:18 | -1.32583 | 36.92440 | 5334 ft | 19 kts | 233° |
| 2026-04-30 18:18 | -1.32679 | 36.92364 | 5333 ft | 19 kts | 169° |
| 2026-04-30 18:18 | -1.32802 | 36.92370 | 5332 ft | 18 kts | 208° |
| 2026-04-30 18:19 | -1.32877 | 36.92275 | 5334 ft | 17 kts | 221° |
| 2026-04-30 18:19 | -1.32986 | 36.92227 | 5334 ft | 17 kts | 196° |
| 2026-04-30 18:19 | -1.33067 | 36.92215 | 5333 ft | 9 kts | 179° |
| 2026-04-30 18:19 | -1.33116 | 36.92229 | 5334 ft | 5 kts | 128° |
| 2026-04-30 18:20 | -1.33118 | 36.92266 | 5333 ft | 5 kts | 79° |
| 2026-04-30 18:20 | -1.33107 | 36.92327 | 5330 ft | 2 kts | 78° |